createdAt,value
2017-09-26T00:02:21.985Z,33.70
2017-09-26T00:04:50.094Z,32.73
2017-09-26T00:07:18.183Z,31.70
2017-09-26T00:09:46.279Z,30.30
2017-09-26T00:12:14.375Z,30.53
2017-09-26T00:14:42.501Z,30.47
2017-09-26T00:17:10.595Z,29.93
2017-09-26T00:19:39.459Z,29.23
2017-09-26T00:22:07.575Z,30.27
2017-09-26T00:24:36.450Z,30.90
2017-09-26T00:27:06.248Z,32.60
2017-09-26T00:29:34.364Z,31.40
2017-09-26T00:32:02.453Z,32.30
2017-09-26T00:34:30.565Z,29.50
2017-09-26T00:36:58.648Z,29.43
2017-09-26T00:39:26.784Z,28.37
2017-09-26T00:41:54.883Z,31.50
2017-09-26T00:44:22.983Z,29.00
2017-09-26T00:46:51.111Z,31.57
2017-09-26T00:49:19.203Z,30.20
2017-09-26T00:51:47.311Z,30.10
2017-09-26T00:54:15.426Z,29.37
2017-09-26T00:56:43.551Z,30.00
2017-09-26T00:59:11.657Z,30.60
2017-09-26T01:01:39.755Z,30.20
2017-09-26T01:04:08.769Z,28.20
2017-09-26T01:06:42.996Z,31.27
2017-09-26T01:09:11.858Z,30.27
2017-09-26T01:11:39.944Z,28.10
2017-09-26T01:14:08.052Z,29.20
2017-09-26T01:16:36.180Z,29.10
2017-09-26T01:19:04.255Z,29.43
2017-09-26T01:21:33.139Z,29.23
2017-09-26T01:24:01.261Z,29.90
2017-09-26T01:26:30.419Z,29.20
2017-09-26T01:28:59.306Z,28.07
2017-09-26T01:31:27.400Z,29.93
2017-09-26T01:33:56.251Z,29.80
2017-09-26T01:36:24.366Z,27.07
2017-09-26T01:38:53.282Z,27.10
2017-09-26T01:41:21.405Z,27.30
2017-09-26T01:43:49.476Z,29.40
2017-09-26T01:46:17.566Z,28.13
2017-09-26T01:48:45.676Z,27.10
2017-09-26T01:51:13.844Z,26.60
2017-09-26T01:53:41.922Z,28.47
2017-09-26T01:56:10.023Z,30.50
2017-09-26T02:01:43.197Z,26.90
2017-09-26T02:04:11.307Z,26.93
2017-09-26T02:06:39.400Z,28.17
2017-09-26T02:09:07.521Z,26.40
2017-09-26T02:11:35.611Z,27.50
2017-09-26T02:14:03.716Z,27.47
2017-09-26T02:16:31.822Z,27.27
2017-09-26T02:18:59.967Z,26.87
2017-09-26T02:21:28.072Z,28.40
2017-09-26T02:23:56.155Z,26.13
2017-09-26T02:26:24.296Z,26.53
2017-09-26T02:28:52.379Z,26.47
2017-09-26T02:31:20.516Z,25.23
2017-09-26T02:33:48.608Z,23.40
2017-09-26T02:36:17.482Z,25.43
2017-09-26T02:38:45.600Z,25.53
2017-09-26T02:41:13.713Z,26.47
2017-09-26T02:43:43.500Z,25.50
2017-09-26T02:46:11.611Z,25.87
2017-09-26T02:48:39.700Z,24.97
2017-09-26T02:51:08.707Z,25.70
2017-09-26T02:53:37.555Z,27.47
2017-09-26T02:56:05.656Z,25.43
2017-09-26T02:58:33.743Z,27.30
2017-09-26T03:01:01.844Z,25.80
2017-09-26T03:03:29.935Z,25.40
2017-09-26T03:05:58.019Z,25.30
2017-09-26T03:08:26.148Z,25.67
2017-09-26T03:10:54.253Z,25.63
2017-09-26T03:13:22.333Z,24.13
2017-09-26T03:15:50.451Z,25.50
2017-09-26T03:18:18.531Z,25.67
2017-09-26T03:20:46.635Z,23.90
2017-09-26T03:23:14.733Z,23.83
2017-09-26T03:25:42.837Z,23.90
2017-09-26T03:28:11.718Z,22.80
2017-09-26T03:30:39.802Z,23.90
2017-09-26T03:33:08.677Z,23.93
2017-09-26T03:35:36.806Z,25.60
2017-09-26T03:38:04.909Z,22.93
2017-09-26T03:40:33.024Z,24.40
2017-09-26T03:43:01.137Z,24.57
2017-09-26T03:45:29.239Z,23.27
2017-09-26T03:47:57.315Z,21.17
2017-09-26T03:50:25.440Z,23.63
2017-09-26T03:52:53.547Z,23.63
2017-09-26T03:55:21.644Z,23.23
2017-09-26T03:57:49.785Z,24.13
2017-09-26T04:00:17.891Z,22.80
2017-09-26T04:02:45.995Z,22.93
2017-09-26T04:05:14.078Z,25.20
2017-09-26T04:07:42.173Z,24.13
2017-09-26T04:10:10.352Z,23.13
2017-09-26T04:12:38.471Z,23.03
2017-09-26T04:15:06.549Z,24.73
2017-09-26T04:17:34.635Z,23.37
2017-09-26T04:20:02.746Z,22.87
2017-09-26T04:22:30.833Z,22.63
2017-09-26T04:24:59.699Z,22.47
2017-09-26T04:27:27.786Z,22.93
2017-09-26T04:29:55.860Z,23.93
2017-09-26T04:32:23.996Z,23.40
2017-09-26T04:34:52.075Z,23.10
2017-09-26T04:37:20.206Z,24.80
2017-09-26T04:39:48.303Z,21.73
2017-09-26T04:42:16.424Z,22.73
2017-09-26T04:44:45.374Z,23.97
2017-09-26T04:47:13.507Z,23.77
2017-09-26T04:49:42.392Z,22.53
2017-09-26T04:52:10.496Z,22.10
2017-09-26T04:54:38.596Z,22.27
2017-09-26T04:57:06.727Z,23.10
2017-09-26T04:59:34.826Z,22.90
2017-09-26T05:02:02.933Z,23.00
2017-09-26T05:04:31.034Z,23.13
2017-09-26T05:06:59.136Z,21.93
2017-09-26T05:09:27.255Z,20.93
2017-09-26T05:11:55.354Z,22.60
2017-09-26T05:14:23.492Z,23.83
2017-09-26T05:16:51.593Z,21.63
2017-09-26T05:19:19.811Z,22.00
2017-09-26T05:21:47.937Z,22.70
2017-09-26T05:24:16.012Z,24.90
2017-09-26T05:26:44.142Z,22.27
2017-09-26T05:29:12.286Z,22.60
2017-09-26T05:31:40.419Z,20.90
2017-09-26T05:34:09.303Z,22.37
2017-09-26T05:36:37.388Z,21.37
2017-09-26T05:39:06.317Z,20.60
2017-09-26T05:41:34.413Z,22.60
2017-09-26T05:44:02.516Z,21.20
2017-09-26T05:46:31.374Z,23.90
2017-09-26T05:48:59.487Z,21.77
2017-09-26T05:51:27.576Z,21.40
2017-09-26T05:53:55.662Z,21.80
2017-09-26T05:56:25.061Z,22.00
2017-09-26T05:58:53.311Z,23.37
2017-09-26T06:01:21.522Z,22.67
2017-09-26T06:03:49.596Z,23.60
2017-09-26T06:06:19.468Z,22.77
2017-09-26T06:08:48.424Z,22.93
2017-09-26T06:11:17.273Z,22.50
2017-09-26T06:13:45.376Z,23.13
2017-09-26T06:16:13.512Z,22.33
2017-09-26T06:18:41.591Z,23.33
2017-09-26T06:21:09.669Z,23.30
2017-09-26T06:23:37.779Z,21.57
2017-09-26T06:26:05.906Z,23.37
2017-09-26T06:28:34.005Z,23.20
2017-09-26T06:31:02.111Z,22.83
2017-09-26T06:33:31.160Z,21.93
2017-09-26T06:35:59.248Z,22.80
2017-09-26T06:38:27.394Z,22.30
2017-09-26T06:40:55.489Z,22.60
2017-09-26T06:43:23.732Z,22.23
2017-09-26T06:45:52.598Z,21.23
2017-09-26T06:48:20.697Z,23.27
2017-09-26T06:50:48.971Z,20.70
2017-09-26T06:53:17.097Z,22.90
2017-09-26T06:55:45.223Z,22.00
2017-09-26T06:58:13.340Z,23.37
2017-09-26T07:00:41.667Z,22.53
2017-09-26T07:03:10.544Z,20.10
2017-09-26T07:05:39.576Z,23.13
2017-09-26T07:08:07.667Z,22.80
2017-09-26T07:10:35.775Z,21.97
2017-09-26T07:13:03.863Z,22.17
2017-09-26T07:15:31.950Z,22.00
2017-09-26T07:18:00.367Z,22.90
2017-09-26T07:20:28.463Z,23.27
2017-09-26T07:22:56.576Z,23.20
2017-09-26T07:25:24.702Z,22.67
2017-09-26T07:27:52.835Z,23.23
2017-09-26T07:30:20.936Z,23.43
2017-09-26T07:32:49.242Z,24.20
2017-09-26T07:35:17.379Z,23.03
2017-09-26T07:37:45.472Z,21.40
2017-09-26T07:40:13.601Z,23.30
2017-09-26T07:42:41.692Z,21.80
2017-09-26T07:45:10.687Z,24.80
2017-09-26T07:47:38.795Z,23.60
2017-09-26T07:50:06.984Z,23.30
2017-09-26T07:52:35.843Z,23.33
2017-09-26T07:55:04.004Z,23.63
2017-09-26T07:57:32.122Z,22.27
2017-09-26T08:00:00.995Z,24.20
2017-09-26T08:02:29.473Z,25.50
2017-09-26T08:04:57.983Z,25.23
2017-09-26T08:07:27.270Z,23.87
2017-09-26T08:09:56.526Z,23.27
2017-09-26T08:12:24.622Z,24.93
2017-09-26T08:14:52.786Z,24.00
2017-09-26T08:17:20.882Z,23.03
2017-09-26T08:19:48.975Z,24.67
2017-09-26T08:22:17.095Z,23.73
2017-09-26T08:24:45.168Z,24.80
2017-09-26T08:27:13.310Z,23.60
2017-09-26T08:29:41.486Z,24.33
2017-09-26T08:32:09.570Z,24.37
2017-09-26T08:34:37.663Z,25.23
2017-09-26T08:37:05.791Z,25.13
2017-09-26T08:39:33.988Z,24.00
2017-09-26T08:42:02.185Z,22.87
2017-09-26T08:44:30.304Z,24.00
2017-09-26T08:46:58.608Z,23.77
2017-09-26T08:49:26.740Z,22.47
2017-09-26T08:51:55.955Z,23.87
2017-09-26T08:54:24.052Z,22.57
2017-09-26T08:56:52.858Z,19.97
2017-09-26T08:59:20.995Z,21.80
2017-09-26T09:01:49.109Z,21.40
2017-09-26T09:04:17.206Z,20.60
2017-09-26T09:06:45.298Z,21.07
2017-09-26T09:09:14.192Z,23.30
2017-09-26T09:11:43.047Z,19.00
2017-09-26T09:14:11.180Z,20.70
2017-09-26T09:16:39.275Z,22.47
2017-09-26T09:19:07.361Z,22.97
2017-09-26T09:21:35.527Z,20.07
2017-09-26T09:24:03.609Z,20.17
2017-09-26T09:26:31.705Z,20.93
2017-09-26T09:28:59.823Z,20.27
2017-09-26T09:31:27.911Z,19.90
2017-09-26T09:33:56.267Z,20.77
2017-09-26T09:36:24.372Z,19.77
2017-09-26T09:38:52.750Z,20.40
2017-09-26T09:41:20.886Z,20.10
2017-09-26T09:43:49.002Z,20.47
2017-09-26T09:46:17.156Z,21.73
2017-09-26T09:48:45.295Z,20.37
2017-09-26T09:51:13.384Z,21.20
2017-09-26T09:53:41.490Z,21.40
2017-09-26T09:56:09.579Z,20.77
2017-09-26T09:58:37.697Z,22.23
2017-09-26T10:01:05.823Z,20.87
2017-09-26T10:03:35.834Z,20.60
2017-09-26T10:06:03.938Z,20.00
2017-09-26T10:08:32.036Z,20.50
2017-09-26T10:11:00.684Z,19.77
2017-09-26T10:13:29.551Z,19.97
2017-09-26T10:15:57.888Z,20.53
2017-09-26T10:18:26.018Z,20.83
2017-09-26T10:20:54.158Z,18.30
2017-09-26T10:23:22.247Z,21.17
2017-09-26T10:25:50.338Z,20.70
2017-09-26T10:28:19.227Z,20.20
2017-09-26T10:30:47.479Z,19.90
2017-09-26T10:33:15.718Z,21.40
2017-09-26T10:35:43.843Z,21.53
2017-09-26T10:38:11.981Z,20.80
2017-09-26T10:40:40.113Z,20.80
2017-09-26T10:43:08.218Z,20.67
2017-09-26T10:45:36.338Z,21.80
2017-09-26T10:48:04.431Z,20.83
2017-09-26T10:50:32.534Z,19.50
2017-09-26T10:53:00.667Z,20.47
2017-09-26T11:02:13.058Z,18.20
2017-09-26T11:04:41.199Z,20.50
2017-09-26T11:07:09.298Z,20.20
2017-09-26T11:09:37.610Z,20.93
2017-09-26T11:12:05.756Z,20.33
2017-09-26T11:14:33.848Z,19.63
2017-09-26T11:17:02.043Z,19.40
2017-09-26T11:19:30.183Z,20.30
2017-09-26T11:21:59.062Z,20.30
2017-09-26T11:24:27.178Z,19.00
2017-09-26T11:26:55.299Z,21.80
2017-09-26T11:29:23.614Z,20.97
2017-09-26T11:31:51.700Z,20.97
2017-09-26T11:34:19.831Z,21.53
2017-09-26T11:36:47.929Z,20.33
2017-09-26T11:39:16.228Z,21.90
2017-09-26T11:41:44.351Z,21.53
2017-09-26T11:44:12.459Z,20.93
2017-09-26T11:46:40.573Z,20.13
2017-09-26T11:49:08.995Z,21.37
2017-09-26T11:51:37.118Z,18.80
2017-09-26T11:54:05.990Z,23.17
2017-09-26T11:56:34.238Z,20.80
2017-09-26T11:59:02.324Z,18.40
2017-09-26T12:01:30.428Z,19.27
2017-09-26T12:03:59.291Z,19.00
2017-09-26T12:06:27.405Z,19.20
2017-09-26T12:08:55.532Z,19.57
2017-09-26T12:11:23.651Z,18.30
2017-09-26T12:13:58.387Z,20.33
2017-09-26T12:16:26.499Z,17.93
2017-09-26T12:18:54.575Z,19.60
2017-09-26T12:21:22.797Z,19.60
2017-09-26T12:23:51.888Z,19.00
2017-09-26T12:26:20.768Z,19.33
2017-09-26T12:28:49.632Z,19.37
2017-09-26T12:31:17.738Z,20.87
2017-09-26T12:33:46.627Z,18.80
2017-09-26T12:36:15.475Z,18.67
2017-09-26T12:38:43.600Z,18.37
2017-09-26T12:41:11.679Z,17.43
2017-09-26T12:43:39.793Z,19.57
2017-09-26T12:46:07.876Z,19.30
2017-09-26T12:48:35.967Z,18.83
2017-09-26T12:51:05.152Z,19.53
2017-09-26T12:53:33.293Z,19.30
2017-09-26T12:56:01.438Z,19.00
2017-09-26T12:58:29.635Z,17.10
2017-09-26T13:00:57.819Z,18.20
2017-09-26T13:03:26.410Z,18.17
2017-09-26T13:05:54.536Z,18.37
2017-09-26T13:08:23.088Z,20.30
2017-09-26T13:10:51.202Z,18.40
2017-09-26T13:13:19.304Z,17.57
2017-09-26T13:15:47.405Z,16.67
2017-09-26T13:18:15.543Z,17.07
2017-09-26T13:20:43.655Z,17.83
2017-09-26T13:23:11.785Z,17.80
2017-09-26T13:25:39.960Z,18.13
2017-09-26T13:28:08.044Z,16.63
2017-09-26T13:30:36.138Z,18.73
2017-09-26T13:33:04.466Z,17.83
2017-09-26T13:35:32.564Z,16.87
2017-09-26T13:38:01.599Z,15.03
2017-09-26T13:40:29.694Z,13.80
2017-09-26T13:42:58.577Z,15.07
2017-09-26T13:45:26.686Z,15.17
2017-09-26T13:47:54.799Z,15.60
2017-09-26T13:50:22.900Z,14.80
2017-09-26T13:52:51.769Z,17.77
2017-09-26T13:55:19.911Z,16.00
2017-09-26T13:57:48.054Z,15.97
2017-09-26T14:00:16.264Z,14.53
2017-09-26T14:02:45.186Z,14.10
2017-09-26T14:05:14.059Z,16.60
2017-09-26T14:07:42.635Z,15.60
2017-09-26T14:10:10.753Z,10.90
2017-09-26T14:12:38.862Z,8.40
2017-09-26T14:15:07.000Z,7.00
2017-09-26T14:17:35.122Z,6.33
2017-09-26T14:20:03.236Z,5.73
2017-09-26T14:22:31.341Z,5.67
2017-09-26T14:24:59.443Z,5.53
2017-09-26T14:27:27.555Z,5.47
2017-09-26T14:29:55.658Z,5.37
2017-09-26T14:32:23.778Z,5.70
2017-09-26T14:34:52.338Z,5.50
2017-09-26T14:37:20.424Z,4.80
2017-09-26T14:39:48.520Z,5.00
2017-09-26T14:42:16.625Z,5.57
2017-09-26T14:44:44.740Z,4.90
2017-09-26T14:47:12.930Z,4.90
2017-09-26T14:49:41.072Z,5.50
2017-09-26T14:52:09.167Z,5.47
2017-09-26T14:54:37.319Z,5.77
2017-09-26T14:57:05.423Z,6.07
2017-09-26T14:59:34.562Z,5.33
2017-09-26T15:02:02.643Z,4.93
2017-09-26T15:04:30.807Z,5.30
2017-09-26T15:06:59.136Z,5.33
2017-09-26T15:09:27.246Z,5.30
2017-09-26T15:11:56.611Z,5.10
2017-09-26T15:14:24.691Z,5.37
2017-09-26T15:16:54.478Z,5.43
2017-09-26T15:19:22.756Z,5.83
2017-09-26T15:21:50.847Z,5.50
2017-09-26T15:24:18.967Z,5.43
2017-09-26T15:26:47.081Z,5.57
2017-09-26T15:29:15.254Z,5.23
2017-09-26T15:31:43.589Z,5.90
2017-09-26T15:34:11.686Z,5.20
2017-09-26T15:36:40.971Z,6.00
2017-09-26T15:39:09.067Z,5.50
2017-09-26T15:41:37.153Z,4.90
2017-09-26T15:44:05.271Z,5.30
2017-09-26T15:46:34.457Z,5.17
2017-09-26T15:49:02.536Z,5.10
2017-09-26T15:51:30.655Z,4.57
2017-09-26T15:53:58.735Z,4.80
2017-09-26T15:56:26.987Z,5.40
2017-09-26T15:58:55.654Z,5.30
2017-09-26T16:01:23.740Z,5.20
2017-09-26T16:03:51.872Z,4.60
2017-09-26T16:06:20.726Z,4.43
2017-09-26T16:08:49.762Z,4.63
2017-09-26T16:11:18.643Z,4.47
2017-09-26T16:13:46.715Z,4.17
2017-09-26T16:16:14.795Z,4.40
2017-09-26T16:18:42.904Z,3.87
2017-09-26T16:21:10.996Z,4.20
2017-09-26T16:23:39.099Z,4.13
2017-09-26T16:26:07.195Z,3.93
2017-09-26T16:28:35.292Z,4.40
2017-09-26T16:31:04.164Z,4.40
2017-09-26T16:33:32.262Z,4.50
2017-09-26T16:36:00.349Z,4.30
2017-09-26T16:38:29.439Z,4.40
2017-09-26T16:40:57.534Z,4.13
2017-09-26T16:43:25.628Z,3.83
2017-09-26T16:45:54.511Z,4.60
2017-09-26T16:48:24.304Z,4.63
2017-09-26T16:50:53.319Z,4.43
2017-09-26T16:53:22.205Z,4.43
2017-09-26T16:55:51.199Z,4.50
2017-09-26T16:58:20.046Z,4.43
2017-09-26T17:00:48.179Z,4.57
2017-09-26T17:03:17.036Z,5.17
2017-09-26T17:05:45.135Z,4.17
2017-09-26T17:08:13.253Z,4.40
2017-09-26T17:10:41.354Z,4.87
2017-09-26T17:13:09.435Z,5.07
2017-09-26T17:15:38.641Z,4.60
2017-09-26T17:18:07.523Z,4.90
2017-09-26T17:20:36.412Z,5.03
2017-09-26T17:23:04.504Z,5.17
2017-09-26T17:25:32.603Z,4.53
2017-09-26T17:28:00.713Z,4.77
2017-09-26T17:30:28.800Z,5.20
2017-09-26T17:32:57.697Z,4.97
2017-09-26T17:35:26.577Z,5.07
2017-09-26T17:37:55.591Z,5.23
2017-09-26T17:40:23.720Z,5.20
2017-09-26T17:42:51.812Z,5.80
2017-09-26T17:45:20.988Z,6.33
2017-09-26T17:47:49.087Z,6.30
2017-09-26T17:50:17.427Z,6.27
2017-09-26T17:52:45.796Z,7.20
2017-09-26T17:55:13.924Z,6.17
2017-09-26T17:57:42.003Z,5.53
2017-09-26T18:00:10.082Z,6.30
2017-09-26T18:02:38.954Z,6.07
2017-09-26T18:05:07.043Z,5.53
2017-09-26T18:07:35.922Z,6.03
2017-09-26T18:10:04.004Z,6.20
2017-09-26T18:12:32.093Z,6.00
2017-09-26T18:15:00.203Z,6.10
2017-09-26T18:17:28.296Z,5.90
2017-09-26T18:19:56.460Z,5.80
2017-09-26T18:22:25.435Z,6.87
2017-09-26T18:24:54.018Z,6.80
2017-09-26T18:27:22.124Z,6.90
2017-09-26T18:29:50.202Z,6.93
2017-09-26T18:32:18.328Z,6.87
2017-09-26T18:34:46.436Z,6.37
2017-09-26T18:37:14.554Z,6.00
2017-09-26T18:39:42.670Z,5.53
2017-09-26T18:42:10.803Z,6.10
2017-09-26T18:44:38.931Z,6.70
2017-09-26T18:47:07.070Z,6.87
2017-09-26T18:49:35.377Z,6.20
2017-09-26T18:52:03.467Z,6.33
2017-09-26T18:54:31.585Z,6.30
2017-09-26T18:56:59.672Z,6.70
2017-09-26T18:59:27.815Z,6.13
2017-09-26T19:01:56.020Z,7.87
2017-09-26T19:04:24.116Z,7.90
2017-09-26T19:06:52.235Z,6.70
2017-09-26T19:09:20.355Z,7.63
2017-09-26T19:11:48.497Z,7.90
2017-09-26T19:14:17.540Z,7.50
2017-09-26T19:16:45.672Z,7.37
2017-09-26T19:19:13.859Z,7.83
2017-09-26T19:21:41.951Z,8.37
2017-09-26T19:24:10.998Z,7.50
2017-09-26T19:26:39.089Z,8.27
2017-09-26T19:29:07.172Z,8.73
2017-09-26T19:31:36.041Z,8.20
2017-09-26T19:34:04.134Z,8.50
2017-09-26T19:43:16.731Z,7.20
2017-09-26T19:45:44.842Z,7.87
2017-09-26T19:48:12.946Z,8.73
2017-09-26T19:50:41.055Z,7.57
2017-09-26T19:53:09.942Z,8.20
2017-09-26T19:55:38.065Z,7.93
2017-09-26T19:58:06.141Z,7.87
2017-09-26T20:00:34.219Z,8.80
2017-09-26T20:03:02.339Z,8.20
2017-09-26T20:05:30.496Z,7.10
2017-09-26T20:07:58.678Z,7.63
2017-09-26T20:10:27.536Z,7.60
2017-09-26T20:12:55.645Z,7.47
2017-09-26T20:15:24.903Z,7.40
2017-09-26T20:17:53.017Z,7.73
2017-09-26T20:20:21.916Z,7.60
2017-09-26T20:22:50.010Z,8.10
2017-09-26T20:25:18.103Z,8.00
2017-09-26T20:27:46.242Z,8.77
2017-09-26T20:30:14.432Z,7.53
2017-09-26T20:32:42.516Z,7.67
2017-09-26T20:35:11.413Z,7.47
2017-09-26T20:37:39.526Z,7.30
2017-09-26T20:40:07.967Z,7.80
2017-09-26T20:42:36.105Z,7.83
2017-09-26T20:45:04.191Z,8.20
2017-09-26T20:47:32.359Z,7.67
2017-09-26T20:50:00.499Z,8.10
2017-09-26T20:52:28.615Z,8.30
2017-09-26T20:54:56.727Z,7.67
2017-09-26T20:57:24.815Z,7.70
2017-09-26T20:59:53.955Z,7.93
2017-09-26T21:02:22.027Z,8.60
2017-09-26T21:04:50.237Z,9.60
2017-09-26T21:07:18.331Z,8.87
2017-09-26T21:09:46.418Z,9.50
2017-09-26T21:12:15.306Z,10.10
2017-09-26T21:14:44.175Z,9.63
2017-09-26T21:17:12.297Z,8.47
2017-09-26T21:19:40.444Z,9.00
2017-09-26T21:22:08.567Z,9.87
2017-09-26T21:24:36.663Z,9.00
2017-09-26T21:27:04.788Z,8.50
2017-09-26T21:29:32.883Z,8.80
2017-09-26T21:32:00.987Z,8.60
2017-09-26T21:34:29.100Z,8.90
2017-09-26T21:37:00.975Z,8.90
2017-09-26T21:39:29.195Z,8.10
2017-09-26T21:41:57.295Z,8.10
2017-09-26T21:44:26.147Z,7.60
2017-09-26T21:46:54.354Z,7.80
2017-09-26T21:49:22.444Z,6.87
2017-09-26T21:51:50.534Z,8.43
2017-09-26T21:54:18.648Z,6.93
2017-09-26T21:56:46.748Z,8.10
2017-09-26T21:59:14.830Z,7.43
2017-09-26T22:01:42.913Z,7.60
2017-09-26T22:04:11.056Z,7.60
2017-09-26T22:06:39.177Z,7.67
2017-09-26T22:09:07.277Z,7.30
2017-09-26T22:11:35.359Z,7.80
2017-09-26T22:14:03.475Z,9.03
2017-09-26T22:16:31.561Z,10.13
2017-09-26T22:18:59.669Z,8.80
2017-09-26T22:21:27.793Z,9.47
2017-09-26T22:23:55.875Z,10.33
2017-09-26T22:26:23.972Z,8.33
2017-09-26T22:28:52.062Z,8.17
2017-09-26T22:31:20.151Z,9.53
2017-09-26T22:33:48.249Z,9.67
2017-09-26T22:36:16.379Z,10.00
2017-09-26T22:38:44.491Z,9.27
2017-09-26T22:41:12.586Z,8.40
2017-09-26T22:43:40.700Z,9.30
2017-09-26T22:46:08.823Z,8.10
2017-09-26T22:48:37.866Z,8.10
2017-09-26T22:51:05.979Z,7.17
2017-09-26T22:53:34.295Z,8.20
2017-09-26T22:56:02.370Z,7.20
2017-09-26T22:58:30.467Z,6.73
2017-09-26T23:00:58.634Z,7.07
2017-09-26T23:03:26.849Z,7.47
2017-09-26T23:05:54.946Z,7.20
2017-09-26T23:08:23.045Z,6.47
2017-09-26T23:10:51.144Z,6.80
2017-09-26T23:13:20.015Z,7.10
2017-09-26T23:15:48.128Z,7.53
2017-09-26T23:18:16.231Z,7.70
2017-09-26T23:20:44.322Z,6.63
2017-09-26T23:23:12.586Z,7.20
2017-09-26T23:25:40.699Z,7.43
2017-09-26T23:28:09.559Z,6.87
2017-09-26T23:30:37.647Z,6.30
2017-09-26T23:33:05.755Z,6.80
2017-09-26T23:35:33.850Z,6.70
2017-09-26T23:38:01.933Z,7.20
2017-09-26T23:40:30.038Z,7.47
2017-09-26T23:42:58.123Z,7.27
2017-09-26T23:45:27.094Z,7.47
2017-09-26T23:47:55.187Z,6.97
2017-09-26T23:50:24.066Z,7.50
2017-09-26T23:52:52.144Z,7.47
2017-09-26T23:55:20.231Z,8.00
2017-09-26T23:57:48.354Z,7.40
